TimeCST,TemperatureF,Dew PointF,Humidity,Sea Level PressureIn,VisibilityMPH,Wind Direction,Wind SpeedMPH,Gust SpeedMPH,PrecipitationIn,Events,Conditions,WindDirDegrees,DateUTC
12:53 AM,41.0,28.0,60,30.20,10.0,ESE,3.5,-,N/A,,Clear,110,2012-11-04 05:53:00
1:53 AM,39.9,28.9,65,30.20,10.0,SE,5.8,-,N/A,,Overcast,140,2012-11-04 06:53:00
1:53 AM,39.0,28.9,67,30.20,10.0,ESE,4.6,-,N/A,,Overcast,120,2012-11-04 07:53:00
2:53 AM,39.9,30.0,68,30.21,10.0,SSE,4.6,-,N/A,,Overcast,150,2012-11-04 08:53:00
3:53 AM,39.9,30.0,68,30.21,10.0,South,3.5,-,N/A,,Mostly Cloudy,170,2012-11-04 09:53:00
4:53 AM,39.0,30.9,73,30.21,10.0,South,5.8,-,N/A,,Partly Cloudy,180,2012-11-04 10:53:00
5:53 AM,39.0,30.0,70,30.21,10.0,SSE,4.6,-,N/A,,Partly Cloudy,150,2012-11-04 11:53:00
6:53 AM,37.9,30.9,76,30.23,10.0,South,4.6,-,N/A,,Mostly Cloudy,180,2012-11-04 12:53:00
7:53 AM,37.9,32.0,79,30.23,10.0,South,6.9,-,N/A,,Overcast,170,2012-11-04 13:53:00
8:53 AM,39.0,34.0,82,30.24,9.0,Calm,Calm,-,N/A,,Overcast,0,2012-11-04 14:53:00
9:53 AM,42.1,36.0,79,30.22,9.0,Variable,3.5,-,0.00,,Mostly Cloudy,0,2012-11-04 15:53:00
10:53 AM,46.0,37.9,73,30.22,9.0,SSE,5.8,-,N/A,,Partly Cloudy,150,2012-11-04 16:53:00
11:53 AM,50.0,37.9,63,30.18,10.0,SSE,9.2,-,N/A,,Overcast,150,2012-11-04 17:53:00
12:53 PM,54.0,37.0,53,30.14,10.0,South,10.4,-,N/A,,Scattered Clouds,190,2012-11-04 18:53:00
1:53 PM,54.0,37.0,53,30.11,10.0,SSE,10.4,-,N/A,,Mostly Cloudy,160,2012-11-04 19:53:00
2:53 PM,54.0,36.0,51,30.10,10.0,SSE,9.2,-,N/A,,Overcast,150,2012-11-04 20:53:00
3:53 PM,53.1,37.0,55,30.08,10.0,SE,8.1,-,N/A,,Overcast,140,2012-11-04 21:53:00
4:53 PM,51.1,37.0,59,30.09,10.0,SSE,10.4,-,N/A,,Mostly Cloudy,150,2012-11-04 22:53:00
5:53 PM,50.0,37.0,61,30.10,10.0,SE,6.9,-,N/A,,Overcast,140,2012-11-04 23:53:00
6:53 PM,50.0,37.0,61,30.11,10.0,SE,6.9,-,N/A,,Overcast,130,2012-11-05 00:53:00
7:53 PM,46.9,39.9,77,30.10,7.0,SSE,9.2,-,0.01,,Overcast,150,2012-11-05 01:53:00
8:53 PM,45.0,39.9,82,30.10,7.0,SE,6.9,-,0.04,,Overcast,130,2012-11-05 02:53:00
9:53 PM,44.1,39.9,85,30.08,7.0,SE,9.2,-,0.02,,Overcast,130,2012-11-05 03:53:00
10:53 PM,43.0,39.9,89,30.07,5.0,SSE,10.4,-,0.01,Rain,Light Rain,150,2012-11-05 04:53:00